Weather at Chicago Midway International Airport

Public forecast

Using degrees Fahrenheit for public forecast. Weather courtesy of forecast.io.

Current aviation weather report (METAR) for Chicago Midway International Airport

Retrieved 2020/09/22 01:53 UTC (9 minutes ago):

KMDW 220153Z 12005KT 10SM SCT250 18/12 A3025 RMK AO2 SLP241 FU SCT250 T01780122

Aviation forecast (TAF) for Chicago Midway International Airport

Retrieved 2020-09-22 00:24 UTC (2 hours ago):

TAF KMDW 212323Z 2200/2306 17006KT P6SM SCT150 FM220600 21008KT P6SM SCT150